sensor_id;sensor_type;location;lat;lon;timestamp;pressure;altitude;pressure_sealevel;temperature;humidity
28665;BME280;15850;47.524;7.814;2022-11-15T00:00:36;97581.88;;;7.89;100.00
28665;BME280;15850;47.524;7.814;2022-11-15T00:03:20;97573.41;;;7.99;100.00
28665;BME280;15850;47.524;7.814;2022-11-15T00:06:04;97575.94;;;8.04;100.00
28665;BME280;15850;47.524;7.814;2022-11-15T00:08:50;97570.84;;;8.11;100.00
28665;BME280;15850;47.524;7.814;2022-11-15T00:11:34;97573.38;;;8.08;100.00
28665;BME280;15850;47.524;7.814;2022-11-15T00:14:18;97571.16;;;8.01;100.00
28665;BME280;15850;47.524;7.814;2022-11-15T00:17:02;97567.78;;;8.13;100.00
28665;BME280;15850;47.524;7.814;2022-11-15T00:19:46;97562.72;;;7.94;100.00
28665;BME280;15850;47.524;7.814;2022-11-15T00:22:31;97562.13;;;7.88;100.00
28665;BME280;15850;47.524;7.814;2022-11-15T00:25:16;97557.94;;;8.08;100.00
28665;BME280;15850;47.524;7.814;2022-11-15T00:28:00;97543.75;;;8.03;100.00
28665;BME280;15850;47.524;7.814;2022-11-15T00:30:44;97543.63;;;7.90;100.00
28665;BME280;15850;47.524;7.814;2022-11-15T00:33:28;97543.31;;;7.92;100.00
28665;BME280;15850;47.524;7.814;2022-11-15T00:36:12;97538.00;;;8.04;100.00
28665;BME280;15850;47.524;7.814;2022-11-15T00:38:56;97539.81;;;8.30;100.00
28665;BME280;15850;47.524;7.814;2022-11-15T00:41:43;97528.50;;;8.28;100.00
28665;BME280;15850;47.524;7.814;2022-11-15T00:44:27;97521.19;;;8.28;100.00
28665;BME280;15850;47.524;7.814;2022-11-15T00:47:11;97527.22;;;8.42;100.00
28665;BME280;15850;47.524;7.814;2022-11-15T00:49:54;97520.19;;;8.33;100.00
28665;BME280;15850;47.524;7.814;2022-11-15T00:52:38;97516.22;;;8.30;100.00
28665;BME280;15850;47.524;7.814;2022-11-15T00:55:22;97536.78;;;8.40;100.00
28665;BME280;15850;47.524;7.814;2022-11-15T00:58:08;97538.53;;;8.36;100.00
28665;BME280;15850;47.524;7.814;2022-11-15T01:00:52;97532.50;;;8.39;100.00
28665;BME280;15850;47.524;7.814;2022-11-15T01:03:36;97528.97;;;8.30;100.00
28665;BME280;15850;47.524;7.814;2022-11-15T01:06:20;97522.16;;;8.23;100.00
28665;BME280;15850;47.524;7.814;2022-11-15T01:09:04;97522.94;;;8.24;100.00
28665;BME280;15850;47.524;7.814;2022-11-15T01:11:48;97524.34;;;8.30;100.00
28665;BME280;15850;47.524;7.814;2022-11-15T01:14:33;97519.59;;;8.27;100.00
28665;BME280;15850;47.524;7.814;2022-11-15T01:17:18;97515.91;;;8.32;100.00
28665;BME280;15850;47.524;7.814;2022-11-15T01:20:03;97516.28;;;8.21;100.00
28665;BME280;15850;47.524;7.814;2022-11-15T01:22:47;97510.38;;;8.19;100.00
28665;BME280;15850;47.524;7.814;2022-11-15T01:25:31;97512.59;;;8.17;100.00
28665;BME280;15850;47.524;7.814;2022-11-15T01:28:15;97508.16;;;8.21;100.00
28665;BME280;15850;47.524;7.814;2022-11-15T01:31:01;97504.78;;;8.24;100.00
28665;BME280;15850;47.524;7.814;2022-11-15T01:33:45;97510.03;;;8.21;100.00
28665;BME280;15850;47.524;7.814;2022-11-15T01:36:29;97500.81;;;8.22;100.00
28665;BME280;15850;47.524;7.814;2022-11-15T01:39:13;97499.53;;;8.19;100.00
28665;BME280;15850;47.524;7.814;2022-11-15T01:41:57;97494.34;;;7.97;100.00
28665;BME280;15850;47.524;7.814;2022-11-15T01:44:42;97496.25;;;8.05;100.00
28665;BME280;15850;47.524;7.814;2022-11-15T01:47:28;97494.16;;;8.11;100.00
28665;BME280;15850;47.524;7.814;2022-11-15T01:50:14;97481.88;;;8.13;100.00
28665;BME280;15850;47.524;7.814;2022-11-15T01:52:59;97486.16;;;8.14;100.00
28665;BME280;15850;47.524;7.814;2022-11-15T01:55:43;97481.22;;;8.16;100.00
28665;BME280;15850;47.524;7.814;2022-11-15T01:58:27;97492.84;;;8.17;100.00
28665;BME280;15850;47.524;7.814;2022-11-15T02:01:11;97489.09;;;8.00;100.00
28665;BME280;15850;47.524;7.814;2022-11-15T02:03:57;97497.63;;;7.82;100.00
28665;BME280;15850;47.524;7.814;2022-11-15T02:06:42;97490.22;;;7.91;100.00
28665;BME280;15850;47.524;7.814;2022-11-15T02:09:27;97489.88;;;8.01;100.00
28665;BME280;15850;47.524;7.814;2022-11-15T02:12:11;97489.53;;;8.11;100.00
28665;BME280;15850;47.524;7.814;2022-11-15T02:14:57;97491.13;;;8.12;100.00
28665;BME280;15850;47.524;7.814;2022-11-15T02:17:48;97477.69;;;8.24;100.00
28665;BME280;15850;47.524;7.814;2022-11-15T02:20:48;97473.84;;;8.26;100.00
28665;BME280;15850;47.524;7.814;2022-11-15T02:23:51;97473.22;;;8.20;100.00
28665;BME280;15850;47.524;7.814;2022-11-15T02:29:51;97477.31;;;8.35;100.00
28665;BME280;15850;47.524;7.814;2022-11-15T02:32:45;97462.16;;;8.42;100.00
28665;BME280;15850;47.524;7.814;2022-11-15T02:35:34;97462.13;;;8.04;100.00
28665;BME280;15850;47.524;7.814;2022-11-15T02:38:25;97454.13;;;8.16;100.00
28665;BME280;15850;47.524;7.814;2022-11-15T02:41:13;97453.94;;;8.21;100.00
28665;BME280;15850;47.524;7.814;2022-11-15T02:43:59;97465.38;;;8.27;100.00
28665;BME280;15850;47.524;7.814;2022-11-15T02:46:45;97446.47;;;8.18;100.00
28665;BME280;15850;47.524;7.814;2022-11-15T02:49:33;97445.16;;;8.24;100.00
28665;BME280;15850;47.524;7.814;2022-11-15T02:52:19;97441.63;;;8.24;100.00
28665;BME280;15850;47.524;7.814;2022-11-15T02:55:03;97445.75;;;8.30;100.00
28665;BME280;15850;47.524;7.814;2022-11-15T02:57:50;97443.47;;;8.11;100.00
28665;BME280;15850;47.524;7.814;2022-11-15T03:00:35;97434.16;;;8.21;100.00
28665;BME280;15850;47.524;7.814;2022-11-15T03:03:34;97436.38;;;7.98;100.00
28665;BME280;15850;47.524;7.814;2022-11-15T03:06:28;97426.75;;;8.09;100.00
28665;BME280;15850;47.524;7.814;2022-11-15T03:09:17;97437.16;;;7.98;100.00
28665;BME280;15850;47.524;7.814;2022-11-15T03:12:04;97425.38;;;7.94;100.00
28665;BME280;15850;47.524;7.814;2022-11-15T03:14:52;97422.25;;;8.13;100.00
28665;BME280;15850;47.524;7.814;2022-11-15T03:17:37;97423.19;;;8.17;100.00
28665;BME280;15850;47.524;7.814;2022-11-15T03:20:22;97419.78;;;8.29;100.00
28665;BME280;15850;47.524;7.814;2022-11-15T03:23:10;97428.34;;;8.40;100.00
28665;BME280;15850;47.524;7.814;2022-11-15T03:25:54;97425.38;;;8.24;100.00
28665;BME280;15850;47.524;7.814;2022-11-15T03:28:40;97431.31;;;8.17;100.00
28665;BME280;15850;47.524;7.814;2022-11-15T03:31:27;97429.25;;;8.14;100.00
28665;BME280;15850;47.524;7.814;2022-11-15T03:34:14;97428.91;;;8.24;100.00
28665;BME280;15850;47.524;7.814;2022-11-15T03:37:01;97425.97;;;8.38;100.00
28665;BME280;15850;47.524;7.814;2022-11-15T03:39:46;97429.03;;;8.28;100.00
28665;BME280;15850;47.524;7.814;2022-11-15T03:42:31;97428.97;;;8.07;100.00
28665;BME280;15850;47.524;7.814;2022-11-15T03:45:19;97424.41;;;8.29;100.00
28665;BME280;15850;47.524;7.814;2022-11-15T03:48:08;97417.09;;;8.20;100.00
28665;BME280;15850;47.524;7.814;2022-11-15T03:50:54;97411.13;;;8.36;100.00
28665;BME280;15850;47.524;7.814;2022-11-15T03:53:38;97407.28;;;8.37;100.00
28665;BME280;15850;47.524;7.814;2022-11-15T03:56:23;97410.06;;;8.28;100.00
28665;BME280;15850;47.524;7.814;2022-11-15T03:59:07;97400.94;;;8.33;100.00
28665;BME280;15850;47.524;7.814;2022-11-15T04:01:51;97407.66;;;8.27;100.00
28665;BME280;15850;47.524;7.814;2022-11-15T04:04:35;97402.72;;;8.29;100.00
28665;BME280;15850;47.524;7.814;2022-11-15T04:07:19;97397.63;;;8.27;100.00
28665;BME280;15850;47.524;7.814;2022-11-15T04:10:03;97391.81;;;8.37;100.00
28665;BME280;15850;47.524;7.814;2022-11-15T04:12:49;97395.03;;;8.39;100.00
28665;BME280;15850;47.524;7.814;2022-11-15T04:15:33;97394.25;;;8.39;100.00
28665;BME280;15850;47.524;7.814;2022-11-15T04:18:17;97385.75;;;8.40;100.00
28665;BME280;15850;47.524;7.814;2022-11-15T04:21:01;97378.09;;;8.42;100.00
28665;BME280;15850;47.524;7.814;2022-11-15T04:23:45;97376.69;;;8.36;100.00
28665;BME280;15850;47.524;7.814;2022-11-15T04:26:29;97377.41;;;8.24;100.00
28665;BME280;15850;47.524;7.814;2022-11-15T04:29:14;97379.09;;;8.38;100.00
28665;BME280;15850;47.524;7.814;2022-11-15T04:31:58;97376.84;;;8.40;100.00
28665;BME280;15850;47.524;7.814;2022-11-15T04:34:42;97377.19;;;8.38;100.00
28665;BME280;15850;47.524;7.814;2022-11-15T04:37:26;97370.72;;;8.52;100.00
28665;BME280;15850;47.524;7.814;2022-11-15T04:40:10;97375.47;;;8.55;100.00
28665;BME280;15850;47.524;7.814;2022-11-15T04:42:54;97380.16;;;8.45;100.00
28665;BME280;15850;47.524;7.814;2022-11-15T04:45:40;97371.28;;;8.57;100.00
28665;BME280;15850;47.524;7.814;2022-11-15T04:48:23;97365.97;;;8.61;100.00
28665;BME280;15850;47.524;7.814;2022-11-15T04:51:07;97364.34;;;8.47;100.00
28665;BME280;15850;47.524;7.814;2022-11-15T04:53:52;97360.56;;;8.40;100.00
28665;BME280;15850;47.524;7.814;2022-11-15T04:56:36;97363.38;;;8.22;100.00
28665;BME280;15850;47.524;7.814;2022-11-15T04:59:20;97359.63;;;8.36;100.00
28665;BME280;15850;47.524;7.814;2022-11-15T05:02:05;97357.22;;;8.34;100.00
28665;BME280;15850;47.524;7.814;2022-11-15T05:04:49;97357.03;;;8.48;100.00
28665;BME280;15850;47.524;7.814;2022-11-15T05:07:33;97359.34;;;8.29;100.00
28665;BME280;15850;47.524;7.814;2022-11-15T05:10:17;97352.28;;;8.15;100.00
28665;BME280;15850;47.524;7.814;2022-11-15T05:13:02;97349.75;;;8.10;100.00
28665;BME280;15850;47.524;7.814;2022-11-15T05:15:46;97342.84;;;8.21;100.00
28665;BME280;15850;47.524;7.814;2022-11-15T05:18:32;97346.72;;;8.33;100.00
28665;BME280;15850;47.524;7.814;2022-11-15T05:21:16;97345.44;;;8.39;100.00
28665;BME280;15850;47.524;7.814;2022-11-15T05:24:00;97341.78;;;8.35;100.00
28665;BME280;15850;47.524;7.814;2022-11-15T05:26:44;97348.06;;;8.47;100.00
28665;BME280;15850;47.524;7.814;2022-11-15T05:29:28;97349.72;;;8.40;100.00
28665;BME280;15850;47.524;7.814;2022-11-15T05:32:12;97354.19;;;8.44;100.00
28665;BME280;15850;47.524;7.814;2022-11-15T05:34:58;97347.50;;;8.42;100.00
28665;BME280;15850;47.524;7.814;2022-11-15T05:37:42;97351.53;;;8.27;100.00
28665;BME280;15850;47.524;7.814;2022-11-15T05:40:26;97347.88;;;8.32;100.00
28665;BME280;15850;47.524;7.814;2022-11-15T05:43:10;97342.44;;;8.32;100.00
28665;BME280;15850;47.524;7.814;2022-11-15T05:45:54;97347.22;;;8.56;100.00
28665;BME280;15850;47.524;7.814;2022-11-15T05:48:38;97341.00;;;8.55;100.00
28665;BME280;15850;47.524;7.814;2022-11-15T05:51:25;97341.19;;;8.50;100.00
28665;BME280;15850;47.524;7.814;2022-11-15T05:54:11;97335.34;;;8.48;100.00
28665;BME280;15850;47.524;7.814;2022-11-15T05:56:55;97331.22;;;8.42;100.00
28665;BME280;15850;47.524;7.814;2022-11-15T05:59:39;97332.34;;;8.41;100.00
28665;BME280;15850;47.524;7.814;2022-11-15T06:02:23;97335.91;;;8.54;100.00
28665;BME280;15850;47.524;7.814;2022-11-15T06:05:07;97325.53;;;8.56;100.00
28665;BME280;15850;47.524;7.814;2022-11-15T06:07:58;97323.13;;;8.54;100.00
28665;BME280;15850;47.524;7.814;2022-11-15T06:10:42;97325.41;;;8.52;100.00
28665;BME280;15850;47.524;7.814;2022-11-15T06:13:26;97330.75;;;8.40;100.00
28665;BME280;15850;47.524;7.814;2022-11-15T06:16:12;97330.34;;;8.50;100.00
28665;BME280;15850;47.524;7.814;2022-11-15T06:18:56;97328.97;;;8.44;100.00
28665;BME280;15850;47.524;7.814;2022-11-15T06:21:40;97328.00;;;8.49;100.00
28665;BME280;15850;47.524;7.814;2022-11-15T06:24:25;97328.13;;;8.52;100.00
28665;BME280;15850;47.524;7.814;2022-11-15T06:27:10;97325.06;;;8.54;100.00
28665;BME280;15850;47.524;7.814;2022-11-15T06:29:54;97326.06;;;8.49;100.00
28665;BME280;15850;47.524;7.814;2022-11-15T06:32:38;97326.56;;;8.63;100.00
28665;BME280;15850;47.524;7.814;2022-11-15T06:35:22;97315.41;;;8.65;100.00
28665;BME280;15850;47.524;7.814;2022-11-15T06:38:07;97321.81;;;8.60;100.00
28665;BME280;15850;47.524;7.814;2022-11-15T06:40:53;97331.13;;;8.51;100.00
28665;BME280;15850;47.524;7.814;2022-11-15T06:43:39;97328.91;;;8.53;100.00
28665;BME280;15850;47.524;7.814;2022-11-15T06:46:23;97324.13;;;8.50;100.00
28665;BME280;15850;47.524;7.814;2022-11-15T06:49:07;97324.56;;;8.31;100.00
28665;BME280;15850;47.524;7.814;2022-11-15T06:51:51;97328.63;;;8.24;100.00
28665;BME280;15850;47.524;7.814;2022-11-15T06:54:35;97322.19;;;8.38;100.00
28665;BME280;15850;47.524;7.814;2022-11-15T06:57:20;97321.03;;;8.39;100.00
28665;BME280;15850;47.524;7.814;2022-11-15T07:00:05;97320.38;;;8.42;100.00
28665;BME280;15850;47.524;7.814;2022-11-15T07:02:49;97326.38;;;8.47;100.00
28665;BME280;15850;47.524;7.814;2022-11-15T07:05:33;97332.41;;;8.53;100.00
28665;BME280;15850;47.524;7.814;2022-11-15T07:08:17;97334.03;;;8.66;100.00
28665;BME280;15850;47.524;7.814;2022-11-15T07:11:02;97336.50;;;8.59;100.00
28665;BME280;15850;47.524;7.814;2022-11-15T07:13:48;97346.34;;;8.64;100.00
28665;BME280;15850;47.524;7.814;2022-11-15T07:16:32;97352.13;;;8.62;100.00
28665;BME280;15850;47.524;7.814;2022-11-15T07:19:16;97346.69;;;8.62;100.00
28665;BME280;15850;47.524;7.814;2022-11-15T07:21:59;97349.06;;;8.64;100.00
28665;BME280;15850;47.524;7.814;2022-11-15T07:24:43;97339.09;;;8.56;100.00
28665;BME280;15850;47.524;7.814;2022-11-15T07:27:27;97341.03;;;8.67;100.00
28665;BME280;15850;47.524;7.814;2022-11-15T07:30:13;97337.28;;;8.81;100.00
28665;BME280;15850;47.524;7.814;2022-11-15T07:32:57;97335.91;;;8.75;100.00
28665;BME280;15850;47.524;7.814;2022-11-15T07:35:41;97334.56;;;8.81;100.00
28665;BME280;15850;47.524;7.814;2022-11-15T07:38:25;97338.84;;;8.82;100.00
28665;BME280;15850;47.524;7.814;2022-11-15T07:41:09;97335.13;;;8.86;100.00
28665;BME280;15850;47.524;7.814;2022-11-15T07:43:53;97331.03;;;8.80;100.00
28665;BME280;15850;47.524;7.814;2022-11-15T07:46:39;97342.72;;;8.81;100.00
28665;BME280;15850;47.524;7.814;2022-11-15T07:49:23;97336.75;;;8.87;100.00
28665;BME280;15850;47.524;7.814;2022-11-15T07:52:07;97342.72;;;8.93;100.00
28665;BME280;15850;47.524;7.814;2022-11-15T07:54:51;97338.22;;;8.97;100.00
28665;BME280;15850;47.524;7.814;2022-11-15T07:57:35;97343.16;;;8.83;100.00
28665;BME280;15850;47.524;7.814;2022-11-15T08:00:20;97339.19;;;8.80;100.00
28665;BME280;15850;47.524;7.814;2022-11-15T08:03:06;97348.63;;;8.95;100.00
28665;BME280;15850;47.524;7.814;2022-11-15T08:05:50;97344.34;;;8.94;100.00
28665;BME280;15850;47.524;7.814;2022-11-15T08:08:34;97351.63;;;9.14;100.00
28665;BME280;15850;47.524;7.814;2022-11-15T08:11:18;97349.81;;;9.18;100.00
28665;BME280;15850;47.524;7.814;2022-11-15T08:14:02;97350.72;;;9.23;100.00
28665;BME280;15850;47.524;7.814;2022-11-15T08:16:46;97343.38;;;9.23;100.00
28665;BME280;15850;47.524;7.814;2022-11-15T08:19:31;97343.97;;;9.41;100.00
28665;BME280;15850;47.524;7.814;2022-11-15T08:22:15;97343.44;;;9.72;100.00
28665;BME280;15850;47.524;7.814;2022-11-15T08:24:59;97349.19;;;9.58;100.00
28665;BME280;15850;47.524;7.814;2022-11-15T08:27:43;97350.78;;;9.47;100.00
28665;BME280;15850;47.524;7.814;2022-11-15T08:30:27;97346.22;;;9.39;100.00
28665;BME280;15850;47.524;7.814;2022-11-15T08:33:11;97339.22;;;9.50;100.00
28665;BME280;15850;47.524;7.814;2022-11-15T08:35:58;97342.19;;;9.57;100.00
28665;BME280;15850;47.524;7.814;2022-11-15T08:38:42;97346.59;;;9.62;100.00
28665;BME280;15850;47.524;7.814;2022-11-15T08:41:26;97342.84;;;9.42;100.00
28665;BME280;15850;47.524;7.814;2022-11-15T08:44:11;97333.47;;;9.52;100.00
28665;BME280;15850;47.524;7.814;2022-11-15T08:46:55;97330.66;;;9.60;100.00
28665;BME280;15850;47.524;7.814;2022-11-15T08:49:39;97325.44;;;9.68;100.00
28665;BME280;15850;47.524;7.814;2022-11-15T08:52:24;97317.50;;;9.75;100.00
28665;BME280;15850;47.524;7.814;2022-11-15T08:55:08;97322.50;;;9.85;100.00
28665;BME280;15850;47.524;7.814;2022-11-15T08:57:52;97320.69;;;9.77;100.00
28665;BME280;15850;47.524;7.814;2022-11-15T09:00:36;97310.25;;;9.67;100.00
28665;BME280;15850;47.524;7.814;2022-11-15T09:03:20;97310.03;;;9.59;100.00
28665;BME280;15850;47.524;7.814;2022-11-15T09:06:09;97313.00;;;9.54;100.00
28665;BME280;15850;47.524;7.814;2022-11-15T09:08:54;97302.25;;;9.58;100.00
28665;BME280;15850;47.524;7.814;2022-11-15T09:11:38;97311.50;;;9.69;100.00
28665;BME280;15850;47.524;7.814;2022-11-15T09:14:21;97301.91;;;9.72;100.00
28665;BME280;15850;47.524;7.814;2022-11-15T09:17:07;97307.75;;;9.25;100.00
28665;BME280;15850;47.524;7.814;2022-11-15T09:19:51;97297.78;;;9.04;100.00
28665;BME280;15850;47.524;7.814;2022-11-15T09:22:35;97295.22;;;9.45;100.00
28665;BME280;15850;47.524;7.814;2022-11-15T09:25:20;97294.22;;;9.61;100.00
28665;BME280;15850;47.524;7.814;2022-11-15T09:28:05;97291.25;;;9.42;100.00
28665;BME280;15850;47.524;7.814;2022-11-15T09:30:50;97281.19;;;9.67;100.00
28665;BME280;15850;47.524;7.814;2022-11-15T09:33:34;97290.59;;;9.45;100.00
28665;BME280;15850;47.524;7.814;2022-11-15T09:36:18;97284.00;;;9.46;100.00
28665;BME280;15850;47.524;7.814;2022-11-15T09:39:02;97282.22;;;9.38;100.00
28665;BME280;15850;47.524;7.814;2022-11-15T09:41:54;97283.00;;;9.63;100.00
28665;BME280;15850;47.524;7.814;2022-11-15T09:44:54;97286.28;;;9.81;100.00
28665;BME280;15850;47.524;7.814;2022-11-15T09:47:50;97292.16;;;9.46;100.00
28665;BME280;15850;47.524;7.814;2022-11-15T09:53:11;97288.19;;;9.56;100.00
28665;BME280;15850;47.524;7.814;2022-11-15T09:55:39;97295.78;;;9.75;100.00
28665;BME280;15850;47.524;7.814;2022-11-15T09:58:10;97296.25;;;9.77;100.00
28665;BME280;15850;47.524;7.814;2022-11-15T10:00:42;97299.59;;;9.98;100.00
28665;BME280;15850;47.524;7.814;2022-11-15T10:03:11;97303.25;;;9.78;100.00
28665;BME280;15850;47.524;7.814;2022-11-15T10:05:39;97306.06;;;9.69;100.00
28665;BME280;15850;47.524;7.814;2022-11-15T10:08:06;97300.28;;;9.83;100.00
28665;BME280;15850;47.524;7.814;2022-11-15T10:10:40;97272.53;;;10.02;100.00
28665;BME280;15850;47.524;7.814;2022-11-15T10:13:08;97268.56;;;9.99;100.00
28665;BME280;15850;47.524;7.814;2022-11-15T10:15:38;97271.66;;;9.98;100.00
28665;BME280;15850;47.524;7.814;2022-11-15T10:18:07;97277.22;;;9.77;100.00
28665;BME280;15850;47.524;7.814;2022-11-15T10:20:34;97269.72;;;9.98;100.00
28665;BME280;15850;47.524;7.814;2022-11-15T10:23:05;97261.06;;;10.08;100.00
28665;BME280;15850;47.524;7.814;2022-11-15T10:25:32;97269.44;;;10.28;100.00
28665;BME280;15850;47.524;7.814;2022-11-15T10:27:58;97256.84;;;10.23;100.00
28665;BME280;15850;47.524;7.814;2022-11-15T10:30:31;97255.44;;;10.42;100.00
28665;BME280;15850;47.524;7.814;2022-11-15T10:32:57;97246.75;;;10.64;100.00
28665;BME280;15850;47.524;7.814;2022-11-15T10:35:24;97244.06;;;10.80;100.00
28665;BME280;15850;47.524;7.814;2022-11-15T10:37:49;97242.53;;;10.67;100.00
28665;BME280;15850;47.524;7.814;2022-11-15T10:40:15;97235.34;;;10.30;100.00
28665;BME280;15850;47.524;7.814;2022-11-15T10:42:41;97227.31;;;10.50;100.00
28665;BME280;15850;47.524;7.814;2022-11-15T10:45:11;97220.28;;;10.93;100.00
28665;BME280;15850;47.524;7.814;2022-11-15T10:47:48;97223.03;;;10.65;100.00
28665;BME280;15850;47.524;7.814;2022-11-15T10:50:25;97224.19;;;10.64;100.00
28665;BME280;15850;47.524;7.814;2022-11-15T10:52:51;97213.41;;;10.67;100.00
28665;BME280;15850;47.524;7.814;2022-11-15T10:55:21;97213.69;;;11.10;100.00
28665;BME280;15850;47.524;7.814;2022-11-15T10:57:49;97216.47;;;11.29;100.00
28665;BME280;15850;47.524;7.814;2022-11-15T11:00:25;97206.81;;;11.16;100.00
28665;BME280;15850;47.524;7.814;2022-11-15T11:02:57;97187.06;;;11.19;100.00
28665;BME280;15850;47.524;7.814;2022-11-15T11:05:27;97185.25;;;10.91;100.00
28665;BME280;15850;47.524;7.814;2022-11-15T11:07:55;97180.59;;;10.92;100.00
28665;BME280;15850;47.524;7.814;2022-11-15T11:10:21;97169.00;;;11.11;100.00
28665;BME280;15850;47.524;7.814;2022-11-15T11:12:46;97171.63;;;10.75;100.00
28665;BME280;15850;47.524;7.814;2022-11-15T11:15:12;97165.56;;;11.14;100.00
28665;BME280;15850;47.524;7.814;2022-11-15T11:17:43;97165.34;;;11.38;100.00
28665;BME280;15850;47.524;7.814;2022-11-15T11:20:18;97165.13;;;11.63;100.00
28665;BME280;15850;47.524;7.814;2022-11-15T11:22:48;97163.50;;;11.42;100.00
28665;BME280;15850;47.524;7.814;2022-11-15T11:25:19;97155.97;;;11.36;100.00
28665;BME280;15850;47.524;7.814;2022-11-15T11:27:50;97152.22;;;11.79;100.00
28665;BME280;15850;47.524;7.814;2022-11-15T11:30:21;97147.91;;;11.78;100.00
28665;BME280;15850;47.524;7.814;2022-11-15T11:32:50;97145.34;;;11.85;100.00
28665;BME280;15850;47.524;7.814;2022-11-15T11:35:22;97135.00;;;11.75;100.00
28665;BME280;15850;47.524;7.814;2022-11-15T11:37:49;97131.72;;;12.05;100.00
28665;BME280;15850;47.524;7.814;2022-11-15T11:40:25;97130.59;;;12.25;100.00
28665;BME280;15850;47.524;7.814;2022-11-15T11:42:54;97125.25;;;12.32;100.00
28665;BME280;15850;47.524;7.814;2022-11-15T11:45:23;97035.47;;;11.62;100.00
28665;BME280;15850;47.524;7.814;2022-11-15T11:47:54;97116.38;;;11.96;100.00
28665;BME280;15850;47.524;7.814;2022-11-15T11:50:25;97115.94;;;11.94;100.00
28665;BME280;15850;47.524;7.814;2022-11-15T11:52:54;97118.59;;;11.91;100.00
28665;BME280;15850;47.524;7.814;2022-11-15T11:55:21;97110.53;;;12.17;100.00
28665;BME280;15850;47.524;7.814;2022-11-15T11:57:48;97106.16;;;12.32;100.00
28665;BME280;15850;47.524;7.814;2022-11-15T12:00:17;97099.31;;;11.99;100.00
28665;BME280;15850;47.524;7.814;2022-11-15T12:02:44;97096.31;;;12.28;100.00
28665;BME280;15850;47.524;7.814;2022-11-15T12:05:13;97089.03;;;12.12;100.00
28665;BME280;15850;47.524;7.814;2022-11-15T12:07:43;97093.88;;;11.99;100.00
28665;BME280;15850;47.524;7.814;2022-11-15T12:10:14;97083.47;;;12.28;100.00
28665;BME280;15850;47.524;7.814;2022-11-15T12:12:43;97072.28;;;12.33;100.00
28665;BME280;15850;47.524;7.814;2022-11-15T12:15:12;97060.91;;;12.08;100.00
28665;BME280;15850;47.524;7.814;2022-11-15T12:17:40;97060.84;;;12.05;100.00
28665;BME280;15850;47.524;7.814;2022-11-15T12:20:14;97051.28;;;12.37;100.00
28665;BME280;15850;47.524;7.814;2022-11-15T12:22:41;97039.53;;;12.33;100.00
28665;BME280;15850;47.524;7.814;2022-11-15T12:25:14;97031.66;;;12.28;100.00
28665;BME280;15850;47.524;7.814;2022-11-15T12:27:41;97039.28;;;11.57;100.00
28665;BME280;15850;47.524;7.814;2022-11-15T12:30:11;97033.19;;;11.64;100.00
28665;BME280;15850;47.524;7.814;2022-11-15T12:32:38;97043.34;;;11.28;100.00
28665;BME280;15850;47.524;7.814;2022-11-15T12:35:04;97027.47;;;11.30;100.00
28665;BME280;15850;47.524;7.814;2022-11-15T12:40:28;97018.25;;;11.19;100.00
28665;BME280;15850;47.524;7.814;2022-11-15T12:45:41;97013.78;;;10.40;100.00
28665;BME280;15850;47.524;7.814;2022-11-15T12:50:53;97007.19;;;10.57;100.00
28665;BME280;15850;47.524;7.814;2022-11-15T12:53:29;97011.31;;;10.67;100.00
28665;BME280;15850;47.524;7.814;2022-11-15T12:58:42;97021.91;;;10.56;100.00
28665;BME280;15850;47.524;7.814;2022-11-15T13:01:08;97033.06;;;10.35;100.00
28665;BME280;15850;47.524;7.814;2022-11-15T13:03:34;97013.34;;;10.38;100.00
28665;BME280;15850;47.524;7.814;2022-11-15T13:06:05;97014.66;;;10.60;100.00
28665;BME280;15850;47.524;7.814;2022-11-15T13:08:38;97011.06;;;10.40;100.00
28665;BME280;15850;47.524;7.814;2022-11-15T13:13:45;97014.81;;;10.51;100.00
28665;BME280;15850;47.524;7.814;2022-11-15T13:16:11;97006.56;;;10.64;100.00
28665;BME280;15850;47.524;7.814;2022-11-15T13:18:43;97014.53;;;10.72;100.00
28665;BME280;15850;47.524;7.814;2022-11-15T13:21:19;97007.06;;;11.04;100.00
28665;BME280;15850;47.524;7.814;2022-11-15T13:23:45;97001.38;;;11.10;100.00
28665;BME280;15850;47.524;7.814;2022-11-15T13:26:12;96982.50;;;11.01;100.00
28665;BME280;15850;47.524;7.814;2022-11-15T13:28:38;96975.88;;;10.47;100.00
28665;BME280;15850;47.524;7.814;2022-11-15T13:31:23;96974.31;;;10.30;100.00
28665;BME280;15850;47.524;7.814;2022-11-15T13:33:49;96969.38;;;10.36;100.00
28665;BME280;15850;47.524;7.814;2022-11-15T13:36:15;96968.81;;;10.62;100.00
28665;BME280;15850;47.524;7.814;2022-11-15T13:38:43;96950.91;;;10.77;100.00
28665;BME280;15850;47.524;7.814;2022-11-15T13:41:16;96939.22;;;10.76;100.00
28665;BME280;15850;47.524;7.814;2022-11-15T13:43:42;96933.22;;;10.87;100.00
28665;BME280;15850;47.524;7.814;2022-11-15T13:46:10;96937.88;;;10.86;100.00
28665;BME280;15850;47.524;7.814;2022-11-15T13:48:37;96930.25;;;10.76;100.00
28665;BME280;15850;47.524;7.814;2022-11-15T13:51:03;96926.91;;;11.02;100.00
28665;BME280;15850;47.524;7.814;2022-11-15T13:53:30;96929.13;;;10.77;100.00
28665;BME280;15850;47.524;7.814;2022-11-15T13:55:56;96936.56;;;10.61;100.00
28665;BME280;15850;47.524;7.814;2022-11-15T13:58:23;96941.53;;;10.58;100.00
28665;BME280;15850;47.524;7.814;2022-11-15T14:00:48;96942.16;;;10.68;100.00
28665;BME280;15850;47.524;7.814;2022-11-15T14:03:24;96952.44;;;10.43;100.00
28665;BME280;15850;47.524;7.814;2022-11-15T14:06:02;96951.19;;;10.56;100.00
28665;BME280;15850;47.524;7.814;2022-11-15T14:08:28;96929.97;;;10.62;100.00
28665;BME280;15850;47.524;7.814;2022-11-15T14:11:07;96925.00;;;10.48;100.00
28665;BME280;15850;47.524;7.814;2022-11-15T14:13:33;96920.97;;;10.77;100.00
28665;BME280;15850;47.524;7.814;2022-11-15T14:16:12;96914.72;;;10.96;100.00
28665;BME280;15850;47.524;7.814;2022-11-15T14:18:41;96916.47;;;10.85;100.00
28665;BME280;15850;47.524;7.814;2022-11-15T14:21:08;96914.88;;;10.84;100.00
28665;BME280;15850;47.524;7.814;2022-11-15T14:23:34;96920.81;;;10.70;100.00